sensor_id;sensor_type;location;lat;lon;timestamp;pressure;altitude;pressure_sealevel;temperature;humidity
80938;BME280;70395;51.382;7.074;2024-01-30T00:01:55;101516.88;;;11.87;53.57
80938;BME280;70395;51.382;7.074;2024-01-30T00:04:21;101514.28;;;11.85;53.50
80938;BME280;70395;51.382;7.074;2024-01-30T00:06:47;101518.06;;;11.82;54.42
80938;BME280;70395;51.382;7.074;2024-01-30T00:09:13;101519.06;;;11.81;54.12
80938;BME280;70395;51.382;7.074;2024-01-30T00:11:39;101521.03;;;11.79;53.98
80938;BME280;70395;51.382;7.074;2024-01-30T00:14:05;101521.13;;;11.78;53.84
80938;BME280;70395;51.382;7.074;2024-01-30T00:16:31;101518.44;;;11.78;53.79
80938;BME280;70395;51.382;7.074;2024-01-30T00:18:57;101514.91;;;11.77;54.17
80938;BME280;70395;51.382;7.074;2024-01-30T00:21:24;101521.03;;;11.79;54.20
80938;BME280;70395;51.382;7.074;2024-01-30T00:23:50;101524.56;;;11.80;54.08
80938;BME280;70395;51.382;7.074;2024-01-30T00:26:16;101520.19;;;11.79;53.97
80938;BME280;70395;51.382;7.074;2024-01-30T00:28:42;101521.03;;;11.79;54.19
80938;BME280;70395;51.382;7.074;2024-01-30T00:31:09;101513.81;;;11.80;53.89
80938;BME280;70395;51.382;7.074;2024-01-30T00:33:41;101509.44;;;11.79;53.97
80938;BME280;70395;51.382;7.074;2024-01-30T00:36:08;101513.81;;;11.80;54.33
80938;BME280;70395;51.382;7.074;2024-01-30T00:38:35;101504.06;;;11.79;54.18
80938;BME280;70395;51.382;7.074;2024-01-30T00:41:01;101496.94;;;11.78;54.35
80938;BME280;70395;51.382;7.074;2024-01-30T00:43:28;101500.50;;;11.78;54.17
80938;BME280;70395;51.382;7.074;2024-01-30T00:45:54;101496.94;;;11.78;54.16
80938;BME280;70395;51.382;7.074;2024-01-30T00:48:20;101497.09;;;11.76;54.13
80938;BME280;70395;51.382;7.074;2024-01-30T00:50:46;101498.06;;;11.75;54.37
80938;BME280;70395;51.382;7.074;2024-01-30T00:53:12;101503.44;;;11.75;54.25
80938;BME280;70395;51.382;7.074;2024-01-30T00:55:38;101491.00;;;11.74;54.34
80938;BME280;70395;51.382;7.074;2024-01-30T00:58:04;101500.88;;;11.74;54.56
80938;BME280;70395;51.382;7.074;2024-01-30T01:00:30;101496.47;;;11.73;54.47
80938;BME280;70395;51.382;7.074;2024-01-30T01:03:00;101494.78;;;11.71;54.51
80938;BME280;70395;51.382;7.074;2024-01-30T01:05:26;101494.66;;;11.73;54.47
80938;BME280;70395;51.382;7.074;2024-01-30T01:07:53;101490.13;;;11.74;54.13
80938;BME280;70395;51.382;7.074;2024-01-30T01:10:19;101497.22;;;11.75;54.29
80938;BME280;70395;51.382;7.074;2024-01-30T01:12:45;101493.69;;;11.74;54.05
80938;BME280;70395;51.382;7.074;2024-01-30T01:15:12;101502.69;;;11.73;54.28
80938;BME280;70395;51.382;7.074;2024-01-30T01:17:39;101498.44;;;11.70;54.52
80938;BME280;70395;51.382;7.074;2024-01-30T01:20:06;101497.47;;;11.71;54.36
80938;BME280;70395;51.382;7.074;2024-01-30T01:22:32;101497.69;;;11.68;54.33
80938;BME280;70395;51.382;7.074;2024-01-30T01:25:00;101498.56;;;11.69;54.11
80938;BME280;70395;51.382;7.074;2024-01-30T01:27:26;101502.22;;;11.68;54.31
80938;BME280;70395;51.382;7.074;2024-01-30T01:29:52;101506.75;;;11.67;54.04
80938;BME280;70395;51.382;7.074;2024-01-30T01:32:18;101498.81;;;11.66;54.09
80938;BME280;70395;51.382;7.074;2024-01-30T01:34:44;101497.94;;;11.65;54.23
80938;BME280;70395;51.382;7.074;2024-01-30T01:37:10;101496.25;;;11.64;54.46
80938;BME280;70395;51.382;7.074;2024-01-30T01:39:36;101497.13;;;11.65;54.40
80938;BME280;70395;51.382;7.074;2024-01-30T01:42:02;101492.72;;;11.64;54.30
80938;BME280;70395;51.382;7.074;2024-01-30T01:44:28;101493.56;;;11.64;54.51
80938;BME280;70395;51.382;7.074;2024-01-30T01:46:54;101497.22;;;11.63;54.47
80938;BME280;70395;51.382;7.074;2024-01-30T01:49:24;101493.81;;;11.61;54.51
80938;BME280;70395;51.382;7.074;2024-01-30T01:51:54;101487.56;;;11.60;54.59
80938;BME280;70395;51.382;7.074;2024-01-30T01:54:23;101491.25;;;11.59;54.67
80938;BME280;70395;51.382;7.074;2024-01-30T01:56:52;101489.53;;;11.58;54.82
80938;BME280;70395;51.382;7.074;2024-01-30T01:59:20;101487.94;;;11.56;54.90
80938;BME280;70395;51.382;7.074;2024-01-30T02:01:48;101480.75;;;11.56;55.02
80938;BME280;70395;51.382;7.074;2024-01-30T02:04:16;101482.72;;;11.54;55.09
80938;BME280;70395;51.382;7.074;2024-01-30T02:06:43;101474.66;;;11.54;54.47
80938;BME280;70395;51.382;7.074;2024-01-30T02:09:09;101470.13;;;11.55;54.84
80938;BME280;70395;51.382;7.074;2024-01-30T02:11:35;101479.03;;;11.55;54.52
80938;BME280;70395;51.382;7.074;2024-01-30T02:14:05;101479.88;;;11.56;54.65
80938;BME280;70395;51.382;7.074;2024-01-30T02:16:31;101476.22;;;11.57;54.63
80938;BME280;70395;51.382;7.074;2024-01-30T02:18:57;101476.22;;;11.57;54.65
80938;BME280;70395;51.382;7.074;2024-01-30T02:21:24;101473.53;;;11.57;55.03
80938;BME280;70395;51.382;7.074;2024-01-30T02:23:50;101470.00;;;11.56;54.93
80938;BME280;70395;51.382;7.074;2024-01-30T02:26:18;101463.75;;;11.56;55.08
80938;BME280;70395;51.382;7.074;2024-01-30T02:28:43;101468.16;;;11.57;54.91
80938;BME280;70395;51.382;7.074;2024-01-30T02:31:09;101468.28;;;11.55;54.82
80938;BME280;70395;51.382;7.074;2024-01-30T02:33:35;101464.75;;;11.55;54.94
80938;BME280;70395;51.382;7.074;2024-01-30T02:36:00;101452.28;;;11.54;55.02
80938;BME280;70395;51.382;7.074;2024-01-30T02:38:27;101462.91;;;11.55;54.99
80938;BME280;70395;51.382;7.074;2024-01-30T02:40:53;101464.63;;;11.56;55.00
80938;BME280;70395;51.382;7.074;2024-01-30T02:43:19;101461.81;;;11.58;55.05
80938;BME280;70395;51.382;7.074;2024-01-30T02:45:44;101457.28;;;11.58;54.92
80938;BME280;70395;51.382;7.074;2024-01-30T02:48:10;101456.31;;;11.59;55.00
80938;BME280;70395;51.382;7.074;2024-01-30T02:50:36;101456.19;;;11.61;54.86
80938;BME280;70395;51.382;7.074;2024-01-30T02:53:02;101456.06;;;11.63;55.03
80938;BME280;70395;51.382;7.074;2024-01-30T02:55:28;101450.69;;;11.63;55.23
80938;BME280;70395;51.382;7.074;2024-01-30T02:57:53;101445.44;;;11.61;55.04
80938;BME280;70395;51.382;7.074;2024-01-30T03:00:20;101446.31;;;11.62;55.00
80938;BME280;70395;51.382;7.074;2024-01-30T03:02:46;101433.84;;;11.60;55.06
80938;BME280;70395;51.382;7.074;2024-01-30T03:05:12;101440.94;;;11.62;54.79
80938;BME280;70395;51.382;7.074;2024-01-30T03:07:37;101439.94;;;11.63;54.85
80938;BME280;70395;51.382;7.074;2024-01-30T03:10:07;101430.91;;;11.64;54.83
80938;BME280;70395;51.382;7.074;2024-01-30T03:12:33;101436.03;;;11.67;54.90
80938;BME280;70395;51.382;7.074;2024-01-30T03:14:59;101430.53;;;11.68;55.01
80938;BME280;70395;51.382;7.074;2024-01-30T03:17:24;101435.53;;;11.73;55.08
80938;BME280;70395;51.382;7.074;2024-01-30T03:19:51;101428.19;;;11.75;54.73
80938;BME280;70395;51.382;7.074;2024-01-30T03:22:17;101426.13;;;11.79;54.96
80938;BME280;70395;51.382;7.074;2024-01-30T03:24:43;101416.97;;;11.81;54.76
80938;BME280;70395;51.382;7.074;2024-01-30T03:27:09;101422.09;;;11.85;54.58
80938;BME280;70395;51.382;7.074;2024-01-30T03:29:34;101427.19;;;11.88;54.60
80938;BME280;70395;51.382;7.074;2024-01-30T03:32:00;101417.28;;;11.88;54.36
80938;BME280;70395;51.382;7.074;2024-01-30T03:34:26;101418.03;;;11.90;54.35
80938;BME280;70395;51.382;7.074;2024-01-30T03:36:52;101418.75;;;11.92;54.39
80938;BME280;70395;51.382;7.074;2024-01-30T03:39:18;101415.94;;;11.94;54.12
80938;BME280;70395;51.382;7.074;2024-01-30T03:41:44;101414.09;;;11.94;54.37
80938;BME280;70395;51.382;7.074;2024-01-30T03:44:11;101413.13;;;11.96;54.46
80938;BME280;70395;51.382;7.074;2024-01-30T03:46:37;101417.53;;;11.97;54.29
80938;BME280;70395;51.382;7.074;2024-01-30T03:49:03;101421.03;;;11.97;54.34
80938;BME280;70395;51.382;7.074;2024-01-30T03:51:28;101422.75;;;11.98;54.22
80938;BME280;70395;51.382;7.074;2024-01-30T03:53:54;101421.78;;;11.99;54.23
80938;BME280;70395;51.382;7.074;2024-01-30T03:56:20;101418.09;;;12.00;54.26
80938;BME280;70395;51.382;7.074;2024-01-30T03:58:46;101419.81;;;12.01;54.41
80938;BME280;70395;51.382;7.074;2024-01-30T04:01:15;101412.72;;;12.00;54.30
80938;BME280;70395;51.382;7.074;2024-01-30T04:03:41;101413.59;;;12.01;54.31
80938;BME280;70395;51.382;7.074;2024-01-30T04:06:08;101402.84;;;12.01;54.20
80938;BME280;70395;51.382;7.074;2024-01-30T04:08:34;101408.06;;;12.02;54.30
80938;BME280;70395;51.382;7.074;2024-01-30T04:11:06;101414.31;;;12.03;54.22
80938;BME280;70395;51.382;7.074;2024-01-30T04:13:33;101406.84;;;12.07;54.32
80938;BME280;70395;51.382;7.074;2024-01-30T04:16:03;101398.03;;;12.04;54.13
80938;BME280;70395;51.382;7.074;2024-01-30T04:18:29;101396.09;;;12.07;54.14
80938;BME280;70395;51.382;7.074;2024-01-30T04:20:55;101395.25;;;12.06;54.09
80938;BME280;70395;51.382;7.074;2024-01-30T04:23:21;101399.75;;;12.05;53.89
80938;BME280;70395;51.382;7.074;2024-01-30T04:25:47;101392.66;;;12.04;53.91
80938;BME280;70395;51.382;7.074;2024-01-30T04:28:13;101395.25;;;12.06;54.11
80938;BME280;70395;51.382;7.074;2024-01-30T04:30:39;101389.97;;;12.04;54.13
80938;BME280;70395;51.382;7.074;2024-01-30T04:33:05;101390.72;;;12.07;54.14
80938;BME280;70395;51.382;7.074;2024-01-30T04:35:31;101393.41;;;12.07;54.19
80938;BME280;70395;51.382;7.074;2024-01-30T04:37:57;101387.28;;;12.04;53.96
80938;BME280;70395;51.382;7.074;2024-01-30T04:40:23;101384.59;;;12.04;53.84
80938;BME280;70395;51.382;7.074;2024-01-30T04:42:49;101382.91;;;12.03;54.19
80938;BME280;70395;51.382;7.074;2024-01-30T04:45:15;101373.03;;;12.04;53.70
80938;BME280;70395;51.382;7.074;2024-01-30T04:47:41;101386.56;;;12.02;54.21
80938;BME280;70395;51.382;7.074;2024-01-30T04:50:07;101378.66;;;12.01;54.21
80938;BME280;70395;51.382;7.074;2024-01-30T04:52:34;101373.41;;;11.99;54.18
80938;BME280;70395;51.382;7.074;2024-01-30T04:55:00;101376.09;;;11.99;54.01
80938;BME280;70395;51.382;7.074;2024-01-30T04:57:26;101378.78;;;11.99;54.09
80938;BME280;70395;51.382;7.074;2024-01-30T04:59:52;101385.84;;;12.00;53.88
80938;BME280;70395;51.382;7.074;2024-01-30T05:02:18;101375.97;;;12.01;54.29
80938;BME280;70395;51.382;7.074;2024-01-30T05:04:44;101372.41;;;12.00;53.87
80938;BME280;70395;51.382;7.074;2024-01-30T05:07:09;101383.16;;;12.00;54.12
80938;BME280;70395;51.382;7.074;2024-01-30T05:09:35;101380.63;;;11.99;53.98
80938;BME280;70395;51.382;7.074;2024-01-30T05:12:01;101386.00;;;11.99;54.09
80938;BME280;70395;51.382;7.074;2024-01-30T05:14:27;101386.09;;;11.97;54.40
80938;BME280;70395;51.382;7.074;2024-01-30T05:16:53;101394.31;;;11.96;53.84
80938;BME280;70395;51.382;7.074;2024-01-30T05:19:19;101397.84;;;11.96;54.06
80938;BME280;70395;51.382;7.074;2024-01-30T05:21:45;101394.16;;;11.97;54.01
80938;BME280;70395;51.382;7.074;2024-01-30T05:24:11;101379.03;;;11.96;54.12
80938;BME280;70395;51.382;7.074;2024-01-30T05:26:37;101375.47;;;11.96;54.38
80938;BME280;70395;51.382;7.074;2024-01-30T05:29:03;101374.78;;;11.93;54.48
80938;BME280;70395;51.382;7.074;2024-01-30T05:31:29;101385.38;;;11.95;54.28
80938;BME280;70395;51.382;7.074;2024-01-30T05:33:55;101379.28;;;11.93;54.26
80938;BME280;70395;51.382;7.074;2024-01-30T05:36:20;101379.28;;;11.93;54.22
80938;BME280;70395;51.382;7.074;2024-01-30T05:38:47;101382.97;;;11.92;54.02
80938;BME280;70395;51.382;7.074;2024-01-30T05:41:13;101376.72;;;11.91;53.96
80938;BME280;70395;51.382;7.074;2024-01-30T05:43:39;101383.94;;;11.91;54.11
80938;BME280;70395;51.382;7.074;2024-01-30T05:46:06;101377.69;;;11.90;54.08
80938;BME280;70395;51.382;7.074;2024-01-30T05:48:32;101377.84;;;11.89;53.99
80938;BME280;70395;51.382;7.074;2024-01-30T05:50:58;101374.53;;;11.85;54.39
80938;BME280;70395;51.382;7.074;2024-01-30T05:53:25;101374.69;;;11.83;54.18
80938;BME280;70395;51.382;7.074;2024-01-30T05:55:51;101376.66;;;11.81;53.99
80938;BME280;70395;51.382;7.074;2024-01-30T05:58:17;101380.06;;;11.83;54.48
80938;BME280;70395;51.382;7.074;2024-01-30T06:00:43;101374.81;;;11.82;54.29
80938;BME280;70395;51.382;7.074;2024-01-30T06:03:08;101370.28;;;11.82;54.65
80938;BME280;70395;51.382;7.074;2024-01-30T06:05:34;101362.22;;;11.82;54.61
80938;BME280;70395;51.382;7.074;2024-01-30T06:08:00;101370.41;;;11.81;54.54
80938;BME280;70395;51.382;7.074;2024-01-30T06:10:25;101366.00;;;11.80;54.35
80938;BME280;70395;51.382;7.074;2024-01-30T06:12:51;101366.00;;;11.80;54.39
80938;BME280;70395;51.382;7.074;2024-01-30T06:15:17;101370.56;;;11.79;54.57
80938;BME280;70395;51.382;7.074;2024-01-30T06:17:43;101370.56;;;11.79;54.52
80938;BME280;70395;51.382;7.074;2024-01-30T06:20:09;101367.13;;;11.77;54.36
80938;BME280;70395;51.382;7.074;2024-01-30T06:22:35;101362.59;;;11.78;54.36
80938;BME280;70395;51.382;7.074;2024-01-30T06:25:02;101369.81;;;11.77;54.56
80938;BME280;70395;51.382;7.074;2024-01-30T06:27:27;101370.66;;;11.78;54.29
80938;BME280;70395;51.382;7.074;2024-01-30T06:29:53;101374.34;;;11.77;54.86
80938;BME280;70395;51.382;7.074;2024-01-30T06:32:19;101360.91;;;11.77;54.56
80938;BME280;70395;51.382;7.074;2024-01-30T06:34:45;101363.59;;;11.77;54.61
80938;BME280;70395;51.382;7.074;2024-01-30T06:37:11;101363.72;;;11.75;54.79
80938;BME280;70395;51.382;7.074;2024-01-30T06:39:36;101363.59;;;11.77;54.43
80938;BME280;70395;51.382;7.074;2024-01-30T06:42:02;101353.69;;;11.77;54.88
80938;BME280;70395;51.382;7.074;2024-01-30T06:44:28;101367.72;;;11.81;54.76
80938;BME280;70395;51.382;7.074;2024-01-30T06:46:54;101354.28;;;11.81;54.84
80938;BME280;70395;51.382;7.074;2024-01-30T06:49:20;101358.56;;;11.83;54.88
80938;BME280;70395;51.382;7.074;2024-01-30T06:51:47;101368.34;;;11.85;54.68
80938;BME280;70395;51.382;7.074;2024-01-30T06:54:13;101362.81;;;11.86;54.80
80938;BME280;70395;51.382;7.074;2024-01-30T06:56:39;101371.75;;;11.87;54.92
80938;BME280;70395;51.382;7.074;2024-01-30T06:59:05;101366.38;;;11.87;54.92
80938;BME280;70395;51.382;7.074;2024-01-30T07:01:31;101368.91;;;11.88;54.49
80938;BME280;70395;51.382;7.074;2024-01-30T07:03:58;101370.50;;;11.91;54.78
80938;BME280;70395;51.382;7.074;2024-01-30T07:06:23;101371.22;;;11.93;54.58
80938;BME280;70395;51.382;7.074;2024-01-30T07:08:50;101374.63;;;11.95;54.87
80938;BME280;70395;51.382;7.074;2024-01-30T07:11:20;101377.94;;;11.99;54.89
80938;BME280;70395;51.382;7.074;2024-01-30T07:13:48;101375.09;;;12.00;54.84
80938;BME280;70395;51.382;7.074;2024-01-30T07:16:15;101376.81;;;12.01;54.79
80938;BME280;70395;51.382;7.074;2024-01-30T07:18:41;101386.47;;;12.04;54.88
80938;BME280;70395;51.382;7.074;2024-01-30T07:21:07;101393.53;;;12.05;54.64
80938;BME280;70395;51.382;7.074;2024-01-30T07:23:32;101393.28;;;12.08;54.70
80938;BME280;70395;51.382;7.074;2024-01-30T07:26:01;101397.53;;;12.11;54.77
80938;BME280;70395;51.382;7.074;2024-01-30T07:28:27;101411.59;;;12.14;54.91
80938;BME280;70395;51.382;7.074;2024-01-30T07:30:52;101407.81;;;12.17;54.69
80938;BME280;70395;51.382;7.074;2024-01-30T07:33:18;101399.34;;;12.22;54.69
80938;BME280;70395;51.382;7.074;2024-01-30T07:35:45;101402.63;;;12.25;54.87
80938;BME280;70395;51.382;7.074;2024-01-30T07:38:11;101400.53;;;12.29;54.54
80938;BME280;70395;51.382;7.074;2024-01-30T07:40:37;101395.03;;;12.31;54.67
80938;BME280;70395;51.382;7.074;2024-01-30T07:43:03;101394.03;;;12.32;54.65
80938;BME280;70395;51.382;7.074;2024-01-30T07:45:29;101401.84;;;12.35;54.68
80938;BME280;70395;51.382;7.074;2024-01-30T07:47:59;101403.44;;;12.37;54.55
80938;BME280;70395;51.382;7.074;2024-01-30T07:50:28;101410.25;;;12.42;54.43
80938;BME280;70395;51.382;7.074;2024-01-30T07:52:56;101409.13;;;12.44;54.56
80938;BME280;70395;51.382;7.074;2024-01-30T07:55:22;101412.44;;;12.48;54.66
80938;BME280;70395;51.382;7.074;2024-01-30T07:57:54;101414.84;;;12.51;54.58
80938;BME280;70395;51.382;7.074;2024-01-30T08:00:21;101418.13;;;12.55;54.66
80938;BME280;70395;51.382;7.074;2024-01-30T08:02:47;101416.16;;;12.57;54.28
80938;BME280;70395;51.382;7.074;2024-01-30T08:05:14;101422.97;;;12.61;54.42
80938;BME280;70395;51.382;7.074;2024-01-30T08:07:41;101418.06;;;12.66;54.17
80938;BME280;70395;51.382;7.074;2024-01-30T08:10:08;101424.91;;;12.70;54.41
80938;BME280;70395;51.382;7.074;2024-01-30T08:12:34;101433.53;;;12.74;53.92
80938;BME280;70395;51.382;7.074;2024-01-30T08:15:00;101438.66;;;12.77;54.00
80938;BME280;70395;51.382;7.074;2024-01-30T08:17:26;101437.56;;;12.80;54.08
80938;BME280;70395;51.382;7.074;2024-01-30T08:19:51;101428.75;;;12.78;54.30
80938;BME280;70395;51.382;7.074;2024-01-30T08:22:17;101430.72;;;12.76;54.26
80938;BME280;70395;51.382;7.074;2024-01-30T08:24:43;101423.50;;;12.76;54.42
80938;BME280;70395;51.382;7.074;2024-01-30T08:27:10;101426.19;;;12.76;54.40
80938;BME280;70395;51.382;7.074;2024-01-30T08:29:36;101421.66;;;12.77;53.84
80938;BME280;70395;51.382;7.074;2024-01-30T08:32:03;101429.34;;;12.81;54.32
80938;BME280;70395;51.382;7.074;2024-01-30T08:34:29;101432.75;;;12.83;53.95
80938;BME280;70395;51.382;7.074;2024-01-30T08:36:55;101436.16;;;12.86;54.05
80938;BME280;70395;51.382;7.074;2024-01-30T08:39:21;101435.78;;;12.90;54.48
80938;BME280;70395;51.382;7.074;2024-01-30T08:41:46;101430.97;;;12.94;53.97
80938;BME280;70395;51.382;7.074;2024-01-30T08:44:12;101443.16;;;12.98;53.88
80938;BME280;70395;51.382;7.074;2024-01-30T08:46:38;101433.09;;;13.00;53.72
80938;BME280;70395;51.382;7.074;2024-01-30T08:49:04;101436.66;;;13.01;53.76
80938;BME280;70395;51.382;7.074;2024-01-30T08:51:30;101448.13;;;13.03;54.02
80938;BME280;70395;51.382;7.074;2024-01-30T08:53:56;101450.56;;;13.06;54.08
80938;BME280;70395;51.382;7.074;2024-01-30T08:56:22;101442.25;;;13.09;53.74
80938;BME280;70395;51.382;7.074;2024-01-30T08:58:48;101438.28;;;13.13;53.68
80938;BME280;70395;51.382;7.074;2024-01-30T09:01:14;101446.97;;;13.17;53.76
80938;BME280;70395;51.382;7.074;2024-01-30T09:03:40;101450.22;;;13.21;53.93
80938;BME280;70395;51.382;7.074;2024-01-30T09:06:10;101450.53;;;13.27;53.48
80938;BME280;70395;51.382;7.074;2024-01-30T09:08:36;101458.06;;;13.34;53.72
80938;BME280;70395;51.382;7.074;2024-01-30T09:11:12;101452.28;;;13.38;53.34
80938;BME280;70395;51.382;7.074;2024-01-30T09:13:38;101454.16;;;13.48;53.45
80938;BME280;70395;51.382;7.074;2024-01-30T09:16:05;101463.38;;;13.55;53.32
80938;BME280;70395;51.382;7.074;2024-01-30T09:18:31;101463.72;;;13.62;53.04
80938;BME280;70395;51.382;7.074;2024-01-30T09:20:57;101465.72;;;13.70;52.97
80938;BME280;70395;51.382;7.074;2024-01-30T09:23:23;101477.94;;;13.74;52.83
80938;BME280;70395;51.382;7.074;2024-01-30T09:25:49;101483.91;;;13.78;53.10
80938;BME280;70395;51.382;7.074;2024-01-30T09:28:15;101487.16;;;13.81;52.90
80938;BME280;70395;51.382;7.074;2024-01-30T09:30:40;101489.59;;;13.84;52.79
80938;BME280;70395;51.382;7.074;2024-01-30T09:33:07;101485.78;;;13.87;52.77
80938;BME280;70395;51.382;7.074;2024-01-30T09:35:32;101480.22;;;13.89;52.88
80938;BME280;70395;51.382;7.074;2024-01-30T09:37:59;101481.41;;;13.96;52.67
80938;BME280;70395;51.382;7.074;2024-01-30T09:40:25;101475.28;;;14.04;52.45
80938;BME280;70395;51.382;7.074;2024-01-30T09:42:52;101479.00;;;14.13;52.57
80938;BME280;70395;51.382;7.074;2024-01-30T09:45:18;101481.84;;;14.21;51.62
80938;BME280;70395;51.382;7.074;2024-01-30T09:47:45;101471.47;;;14.26;51.79
80938;BME280;70395;51.382;7.074;2024-01-30T09:50:13;101477.75;;;14.37;52.02
80938;BME280;70395;51.382;7.074;2024-01-30T09:52:40;101465.09;;;14.47;51.61
80938;BME280;70395;51.382;7.074;2024-01-30T09:55:07;101466.66;;;14.60;51.70
80938;BME280;70395;51.382;7.074;2024-01-30T09:57:35;101473.44;;;14.74;51.07
80938;BME280;70395;51.382;7.074;2024-01-30T10:00:04;101475.03;;;14.86;50.81
80938;BME280;70395;51.382;7.074;2024-01-30T10:02:32;101469.72;;;14.95;50.98
80938;BME280;70395;51.382;7.074;2024-01-30T10:04:57;101481.19;;;15.07;50.97
80938;BME280;70395;51.382;7.074;2024-01-30T10:07:24;101469.06;;;15.31;50.12
80938;BME280;70395;51.382;7.074;2024-01-30T10:09:49;101468.47;;;15.65;49.48
80938;BME280;70395;51.382;7.074;2024-01-30T10:12:15;101467.78;;;16.00;49.52
80938;BME280;70395;51.382;7.074;2024-01-30T10:14:43;101474.50;;;16.24;48.57
80938;BME280;70395;51.382;7.074;2024-01-30T10:17:10;101481.69;;;16.34;48.24
80938;BME280;70395;51.382;7.074;2024-01-30T10:19:37;101465.16;;;16.37;48.07
80938;BME280;70395;51.382;7.074;2024-01-30T10:22:04;101469.53;;;16.38;47.73
80938;BME280;70395;51.382;7.074;2024-01-30T10:24:31;101472.53;;;16.35;47.69
80938;BME280;70395;51.382;7.074;2024-01-30T10:26:58;101463.16;;;16.65;47.40
80938;BME280;70395;51.382;7.074;2024-01-30T10:29:24;101464.78;;;17.03;46.70
80938;BME280;70395;51.382;7.074;2024-01-30T10:32:02;101480.88;;;17.13;46.27
80938;BME280;70395;51.382;7.074;2024-01-30T10:34:28;101471.00;;;17.22;46.14
80938;BME280;70395;51.382;7.074;2024-01-30T10:37:09;101468.78;;;17.26;46.48
80938;BME280;70395;51.382;7.074;2024-01-30T10:39:39;101477.34;;;17.48;45.95
80938;BME280;70395;51.382;7.074;2024-01-30T10:42:11;101470.63;;;17.60;45.40
80938;BME280;70395;51.382;7.074;2024-01-30T10:45:11;101466.91;;;17.61;45.71
80938;BME280;70395;51.382;7.074;2024-01-30T10:47:50;101482.31;;;17.52;44.73
80938;BME280;70395;51.382;7.074;2024-01-30T10:50:16;101477.34;;;17.48;45.40
80938;BME280;70395;51.382;7.074;2024-01-30T10:52:43;101477.22;;;17.49;45.38
80938;BME280;70395;51.382;7.074;2024-01-30T10:55:10;101489.25;;;17.55;45.39
80938;BME280;70395;51.382;7.074;2024-01-30T10:57:37;101491.13;;;17.54;45.13
80938;BME280;70395;51.382;7.074;2024-01-30T11:00:12;101494.13;;;17.43;45.06
80938;BME280;70395;51.382;7.074;2024-01-30T11:02:44;101485.28;;;17.32;45.21
80938;BME280;70395;51.382;7.074;2024-01-30T11:05:11;101491.31;;;17.26;45.34
80938;BME280;70395;51.382;7.074;2024-01-30T11:07:39;101495.22;;;17.24;45.45
80938;BME280;70395;51.382;7.074;2024-01-30T11:10:08;101487.75;;;17.26;45.74
80938;BME280;70395;51.382;7.074;2024-01-30T11:12:40;101485.53;;;17.21;45.92
80938;BME280;70395;51.382;7.074;2024-01-30T11:15:08;101480.59;;;17.16;45.33
80938;BME280;70395;51.382;7.074;2024-01-30T11:17:53;101488.59;;;16.99;46.15
80938;BME280;70395;51.382;7.074;2024-01-30T11:20:30;101490.56;;;16.89;46.26
80938;BME280;70395;51.382;7.074;2024-01-30T11:22:58;101483.41;;;16.80;46.31
80938;BME280;70395;51.382;7.074;2024-01-30T11:25:25;101481.00;;;16.76;46.50
80938;BME280;70395;51.382;7.074;2024-01-30T11:27:53;101489.59;;;16.72;46.67
80938;BME280;70395;51.382;7.074;2024-01-30T11:30:27;101482.63;;;16.69;46.85
80938;BME280;70395;51.382;7.074;2024-01-30T11:35:42;101481.47;;;16.72;47.08
80938;BME280;70395;51.382;7.074;2024-01-30T11:38:10;101489.28;;;16.75;46.66
80938;BME280;70395;51.382;7.074;2024-01-30T11:40:38;101496.19;;;16.69;46.88
80938;BME280;70395;51.382;7.074;2024-01-30T11:43:06;101491.22;;;16.64;47.33
80938;BME280;70395;51.382;7.074;2024-01-30T11:45:33;101488.31;;;16.58;47.18
80938;BME280;70395;51.382;7.074;2024-01-30T11:47:59;101499.78;;;16.51;47.22
80938;BME280;70395;51.382;7.074;2024-01-30T11:50:37;101507.34;;;16.48;47.90
80938;BME280;70395;51.382;7.074;2024-01-30T11:53:04;101508.91;;;16.50;47.62
80938;BME280;70395;51.382;7.074;2024-01-30T11:55:31;101503.78;;;16.47;47.93
80938;BME280;70395;51.382;7.074;2024-01-30T11:57:59;101501.03;;;16.39;47.83
80938;BME280;70395;51.382;7.074;2024-01-30T12:00:26;101509.44;;;16.36;47.55
80938;BME280;70395;51.382;7.074;2024-01-30T12:02:53;101500.06;;;16.30;48.20
80938;BME280;70395;51.382;7.074;2024-01-30T12:05:24;101510.50;;;16.25;48.32
80938;BME280;70395;51.382;7.074;2024-01-30T12:07:50;101512.84;;;16.19;48.39
80938;BME280;70395;51.382;7.074;2024-01-30T12:10:16;101513.63;;;16.12;48.73
80938;BME280;70395;51.382;7.074;2024-01-30T12:12:46;101512.78;;;16.01;48.62
80938;BME280;70395;51.382;7.074;2024-01-30T12:15:13;101510.72;;;15.95;48.98
80938;BME280;70395;51.382;7.074;2024-01-30T12:17:40;101504.91;;;15.90;49.15
80938;BME280;70395;51.382;7.074;2024-01-30T12:22:44;101501.84;;;15.74;49.23
80938;BME280;70395;51.382;7.074;2024-01-30T12:25:16;101498.34;;;15.64;49.94
80938;BME280;70395;51.382;7.074;2024-01-30T12:27:47;101510.91;;;15.55;49.72
80938;BME280;70395;51.382;7.074;2024-01-30T12:30:16;101505.09;;;15.50;49.75
80938;BME280;70395;51.382;7.074;2024-01-30T12:32:45;101503.81;;;15.44;50.44
80938;BME280;70395;51.382;7.074;2024-01-30T12:35:17;101502.59;;;15.38;50.40
80938;BME280;70395;51.382;7.074;2024-01-30T12:37:45;101503.75;;;15.36;51.04
80938;BME280;70395;51.382;7.074;2024-01-30T12:40:13;101505.88;;;15.32;50.86
80938;BME280;70395;51.382;7.074;2024-01-30T12:42:46;101500.91;;;15.27;50.84
80938;BME280;70395;51.382;7.074;2024-01-30T12:45:14;101502.75;;;15.27;51.02
80938;BME280;70395;51.382;7.074;2024-01-30T12:47:41;101509.19;;;15.26;51.18
80938;BME280;70395;51.382;7.074;2024-01-30T12:50:07;101505.19;;;15.20;51.37
80938;BME280;70395;51.382;7.074;2024-01-30T12:52:35;101500.25;;;15.15;51.54
80938;BME280;70395;51.382;7.074;2024-01-30T12:55:01;101497.69;;;15.14;51.64